This is the latest recevied weather packets stored in our database for station/object VK4ZPK-13. If no packets are shown the sender has not sent any weather packets the latest 10 day(s).
| Time | Temp. | Humidity | Pressure | Rain* | Wind** | Luminosity | Snow |
|---|---|---|---|---|---|---|---|
| 1777537257 | 22.22° C | 75% | 1019.3 hPa | 0 mm | - | - | - |
| 1777535457 | 22.78° C | 73% | 1019.2 hPa | 0 mm | - | - | - |
| 1777533657 | 23.33° C | 72% | 1019.2 hPa | 0 mm | - | - | - |
| 1777531857 | 23.89° C | 71% | 1019.1 hPa | 0 mm | - | - | - |
| 1777530057 | 24.44° C | 69% | 1019 hPa | 0 mm | - | - | - |
| 1777528257 | 24.44° C | 67% | 1018.7 hPa | 0 mm | - | - | - |
| 1777526457 | 25° C | 65% | 1018.6 hPa | 0 mm | - | - | - |
| 1777524657 | 25° C | 68% | 1018.7 hPa | 0 mm | - | - | - |
| 1777522857 | 25° C | 67% | 1018.7 hPa | 0 mm | - | - | - |
| 1777521057 | 25° C | 69% | 1018.7 hPa | 0 mm | - | - | - |
| 1777519257 | 25.56° C | 68% | 1018.9 hPa | 0 mm | - | - | - |
| 1777517457 | 25.56° C | 66% | 1019.2 hPa | 0 mm | - | - | - |
| 1777515657 | 25.56° C | 66% | 1019.5 hPa | 0 mm | - | - | - |
| 1777513857 | 25° C | 66% | 1019.9 hPa | 0 mm | - | - | - |
| 1777512057 | 25° C | 65% | 1020.3 hPa | 0 mm | - | - | - |
| 1777510257 | 25° C | 65% | 1020.6 hPa | 0 mm | - | - | - |
| 1777508457 | 25° C | 66% | 1020.8 hPa | 0 mm | - | - | - |
| 1777506657 | 24.44° C | 65% | 1021 hPa | 0 mm | - | - | - |
| 1777504857 | 24.44° C | 68% | 1020.9 hPa | 0 mm | - | - | - |
| 1777503057 | 23.89° C | 71% | 1020.5 hPa | 0 mm | - | - | - |
| 1777501257 | 23.89° C | 73% | 1020.4 hPa | 0 mm | - | - | - |
| 1777499457 | 22.78° C | 76% | 1020.1 hPa | 0 mm | - | - | - |
| 1777497657 | 21.67° C | 77% | 1019.8 hPa | 0 mm | - | - | - |
| 1777495857 | 21.11° C | 79% | 1019.5 hPa | 0 mm | - | - | - |
| 1777494057 | 20.56° C | 79% | 1019.2 hPa | 0 mm | - | - | - |
* Rain latest hour (hover to see other rain measurements)
** Current wind speed in m/s (hover to see current wind gust speed)